createdAt,value
2019-02-17T00:00:57.765Z,11.27
2019-02-17T00:04:01.459Z,12.10
2019-02-17T00:07:06.137Z,13.40
2019-02-17T00:10:09.611Z,13.10
2019-02-17T00:13:12.685Z,13.57
2019-02-17T00:16:17.916Z,12.37
2019-02-17T00:19:21.683Z,13.83
2019-02-17T00:22:26.312Z,14.33
2019-02-17T00:25:30.789Z,12.90
2019-02-17T00:28:34.675Z,15.40
2019-02-17T00:31:38.026Z,13.90
2019-02-17T00:34:41.322Z,15.60
2019-02-17T00:37:44.762Z,15.00
2019-02-17T00:40:47.850Z,16.47
2019-02-17T00:43:51.130Z,16.43
2019-02-17T00:47:07.337Z,16.27
2019-02-17T00:50:10.834Z,17.93
2019-02-17T00:53:14.571Z,18.23
2019-02-17T00:56:17.846Z,17.40
2019-02-17T00:59:21.024Z,17.47
2019-02-17T01:02:27.699Z,17.43
2019-02-17T01:05:32.015Z,16.17
2019-02-17T01:08:35.585Z,17.03
2019-02-17T01:11:41.690Z,15.93
2019-02-17T01:14:48.106Z,14.40
2019-02-17T01:17:51.403Z,16.80
2019-02-17T01:20:55.200Z,16.77
2019-02-17T01:23:58.689Z,18.43
2019-02-17T01:27:03.065Z,18.73
2019-02-17T01:30:11.110Z,17.20
2019-02-17T01:33:16.021Z,18.20
2019-02-17T01:36:19.041Z,18.17
2019-02-17T01:39:22.664Z,18.80
2019-02-17T01:42:26.040Z,16.63
2019-02-17T01:45:32.363Z,17.20
2019-02-17T01:48:38.063Z,18.17
2019-02-17T01:51:42.784Z,18.27
2019-02-17T01:54:46.299Z,18.03
2019-02-17T01:57:51.527Z,16.10
2019-02-17T02:00:54.537Z,16.03
2019-02-17T02:03:57.494Z,15.23
2019-02-17T02:07:02.198Z,15.13
2019-02-17T02:10:06.725Z,16.90
2019-02-17T02:13:09.846Z,13.73
2019-02-17T02:16:12.980Z,15.63
2019-02-17T02:19:16.135Z,15.63
2019-02-17T02:22:19.375Z,14.40
2019-02-17T02:25:22.500Z,17.40
2019-02-17T02:28:25.824Z,15.73
2019-02-17T02:31:29.040Z,15.67
2019-02-17T02:34:32.488Z,16.40
2019-02-17T02:37:35.628Z,15.70
2019-02-17T02:40:38.632Z,16.73
2019-02-17T02:43:41.645Z,16.63
2019-02-17T02:46:44.720Z,17.07
2019-02-17T02:49:47.694Z,18.33
2019-02-17T02:52:51.233Z,20.57
2019-02-17T02:55:58.187Z,19.30
2019-02-17T02:59:01.463Z,18.87
2019-02-17T03:02:05.086Z,20.30
2019-02-17T03:05:08.574Z,19.70
2019-02-17T03:08:11.531Z,19.93
2019-02-17T03:11:14.675Z,19.10
2019-02-17T03:14:17.653Z,19.40
2019-02-17T03:17:21.230Z,19.73
2019-02-17T03:20:24.479Z,19.47
2019-02-17T03:23:33.050Z,19.27
2019-02-17T03:26:36.749Z,19.90
2019-02-17T03:29:41.187Z,17.70
2019-02-17T03:32:45.921Z,18.53
2019-02-17T03:35:48.904Z,18.47
2019-02-17T03:38:54.778Z,19.53
2019-02-17T03:41:57.716Z,19.80
2019-02-17T03:45:00.801Z,19.47
2019-02-17T03:48:03.831Z,18.20
2019-02-17T03:51:08.313Z,16.70
2019-02-17T03:54:12.015Z,15.37
2019-02-17T03:57:16.257Z,15.97
2019-02-17T04:00:21.917Z,16.00
2019-02-17T04:03:27.025Z,14.40
2019-02-17T04:06:32.159Z,16.30
2019-02-17T04:09:37.230Z,16.60
2019-02-17T04:12:41.581Z,15.97
2019-02-17T04:15:46.357Z,15.57
2019-02-17T04:18:49.677Z,17.73
2019-02-17T04:21:55.358Z,18.50
2019-02-17T04:25:01.528Z,20.33
2019-02-17T04:28:04.699Z,21.50
2019-02-17T04:31:13.636Z,19.30
2019-02-17T04:34:17.768Z,20.40
2019-02-17T04:37:23.618Z,19.40
2019-02-17T04:40:26.896Z,19.93
2019-02-17T04:43:33.246Z,21.23
2019-02-17T04:46:36.412Z,21.43
2019-02-17T04:49:41.829Z,21.60
2019-02-17T04:52:47.487Z,19.73
2019-02-17T04:55:52.806Z,20.17
2019-02-17T04:58:55.996Z,21.33
2019-02-17T05:02:01.643Z,21.50
2019-02-17T05:05:05.345Z,22.13
2019-02-17T05:08:14.090Z,20.70
2019-02-17T05:11:17.318Z,19.83
2019-02-17T05:14:20.412Z,22.80
2019-02-17T05:17:25.908Z,22.17
2019-02-17T05:20:29.144Z,23.23
2019-02-17T05:23:32.289Z,22.10
2019-02-17T05:26:35.451Z,23.50
2019-02-17T05:29:38.859Z,23.73
2019-02-17T05:32:44.899Z,23.20
2019-02-17T05:35:47.926Z,24.07
2019-02-17T05:38:57.336Z,23.40
2019-02-17T05:42:01.759Z,24.83
2019-02-17T05:45:04.707Z,22.53
2019-02-17T05:48:17.598Z,23.97
2019-02-17T05:51:20.972Z,22.00
2019-02-17T05:54:24.056Z,25.43
2019-02-17T05:57:27.143Z,25.03
2019-02-17T06:00:32.977Z,22.07
2019-02-17T06:03:37.741Z,25.57
2019-02-17T06:06:40.936Z,25.13
2019-02-17T06:09:44.077Z,25.87
2019-02-17T06:12:47.289Z,23.70
2019-02-17T06:15:50.419Z,28.03
2019-02-17T06:18:53.550Z,28.83
2019-02-17T06:21:56.601Z,28.90
2019-02-17T06:24:59.922Z,28.57
2019-02-17T06:28:03.255Z,31.33
2019-02-17T06:31:14.081Z,29.83
2019-02-17T06:34:11.729Z,31.47
2019-02-17T06:37:16.168Z,30.97
2019-02-17T06:40:19.266Z,31.17
2019-02-17T06:43:22.342Z,32.27
2019-02-17T06:46:29.879Z,33.03
2019-02-17T06:49:33.050Z,31.43
2019-02-17T06:52:36.220Z,30.77
2019-02-17T06:55:53.390Z,28.60
2019-02-17T06:58:56.516Z,27.63
2019-02-17T07:01:59.632Z,28.23
2019-02-17T07:05:09.893Z,30.50
2019-02-17T07:08:13.327Z,33.40
2019-02-17T07:11:16.689Z,29.17
2019-02-17T07:14:22.319Z,36.33
2019-02-17T07:17:26.277Z,32.03
2019-02-17T07:20:32.488Z,30.60
2019-02-17T07:23:37.488Z,29.70
2019-02-17T07:26:40.866Z,33.00
2019-02-17T07:29:44.170Z,34.33
2019-02-17T07:32:47.991Z,33.83
2019-02-17T07:35:51.263Z,34.27
2019-02-17T07:38:54.558Z,32.97
2019-02-17T07:41:57.986Z,33.13
2019-02-17T07:45:01.273Z,28.37
2019-02-17T07:48:08.678Z,28.33
2019-02-17T07:51:15.247Z,23.37
2019-02-17T07:54:22.318Z,31.30
2019-02-17T07:57:25.784Z,31.67
2019-02-17T08:00:29.239Z,38.57
2019-02-17T08:03:34.357Z,35.10
2019-02-17T08:06:37.728Z,34.50
2019-02-17T08:09:41.048Z,31.03
2019-02-17T08:12:44.484Z,31.77
2019-02-17T08:15:48.304Z,32.00
2019-02-17T08:18:54.914Z,32.97
2019-02-17T08:21:58.001Z,27.90
2019-02-17T08:25:00.934Z,29.30
2019-02-17T08:28:03.521Z,30.37
2019-02-17T08:31:06.518Z,31.43
2019-02-17T08:34:09.498Z,33.10
2019-02-17T08:37:12.333Z,31.03
2019-02-17T08:40:14.993Z,33.13
2019-02-17T08:43:17.751Z,31.73
2019-02-17T08:46:20.654Z,32.07
2019-02-17T08:49:23.911Z,33.87
2019-02-17T08:52:26.815Z,30.43
2019-02-17T08:55:30.092Z,32.57
2019-02-17T08:58:33.249Z,33.67
2019-02-17T09:01:36.536Z,32.37
2019-02-17T09:04:39.276Z,32.63
2019-02-17T09:07:42.132Z,33.60
2019-02-17T09:10:45.018Z,36.07
2019-02-17T09:13:48.015Z,34.37
2019-02-17T09:16:50.762Z,36.03
2019-02-17T09:19:53.665Z,34.23
2019-02-17T09:22:56.715Z,38.97
2019-02-17T09:25:59.704Z,36.80
2019-02-17T09:29:02.560Z,45.93
2019-02-17T09:32:15.923Z,37.73
2019-02-17T09:35:10.631Z,43.63
2019-02-17T09:38:13.422Z,38.97
2019-02-17T09:41:16.262Z,35.70
2019-02-17T09:44:19.090Z,37.00
2019-02-17T09:47:21.896Z,34.90
2019-02-17T09:50:24.854Z,34.27
2019-02-17T09:53:27.758Z,31.73
2019-02-17T09:56:30.628Z,30.83
2019-02-17T09:59:33.413Z,25.97
2019-02-17T10:02:36.509Z,29.10
2019-02-17T10:05:39.614Z,27.47
2019-02-17T10:08:42.432Z,26.83
2019-02-17T10:11:47.912Z,23.53
2019-02-17T10:14:51.876Z,25.97
2019-02-17T10:17:54.849Z,24.47
2019-02-17T10:20:57.634Z,22.50
2019-02-17T10:24:00.349Z,22.10
2019-02-17T10:27:03.118Z,20.50
2019-02-17T10:30:08.841Z,20.20
2019-02-17T10:33:11.610Z,20.53
2019-02-17T10:36:14.451Z,19.23
2019-02-17T10:39:17.295Z,16.60
2019-02-17T10:42:20.528Z,16.30
2019-02-17T10:45:23.313Z,17.10
2019-02-17T10:48:26.081Z,15.90
2019-02-17T10:51:28.762Z,15.50
2019-02-17T10:54:31.595Z,15.33
2019-02-17T10:57:34.552Z,16.03
2019-02-17T11:00:37.369Z,14.43
2019-02-17T11:03:55.495Z,15.60
2019-02-17T11:06:59.916Z,15.50
2019-02-17T11:10:02.917Z,16.30
2019-02-17T11:13:05.733Z,18.83
2019-02-17T11:16:08.645Z,16.63
2019-02-17T11:19:11.366Z,16.17
2019-02-17T11:22:22.908Z,14.53
2019-02-17T11:25:18.749Z,14.90
2019-02-17T11:28:21.655Z,12.60
2019-02-17T11:31:24.387Z,12.87
2019-02-17T11:34:27.396Z,12.87
2019-02-17T11:37:30.229Z,12.40
2019-02-17T11:40:33.087Z,12.70
2019-02-17T11:43:36.162Z,12.43
2019-02-17T11:46:38.953Z,12.77
2019-02-17T11:49:41.988Z,12.40
2019-02-17T11:52:44.785Z,12.63
2019-02-17T11:55:47.640Z,12.10
2019-02-17T11:58:50.693Z,11.93
2019-02-17T12:01:55.294Z,11.00
2019-02-17T12:04:58.181Z,11.50
2019-02-17T12:08:01.027Z,11.80
2019-02-17T12:11:04.218Z,10.47
2019-02-17T12:14:06.932Z,12.10
2019-02-17T12:17:09.821Z,10.83
2019-02-17T12:20:30.655Z,10.93
2019-02-17T12:23:37.300Z,11.60
2019-02-17T12:26:59.480Z,11.00
2019-02-17T12:30:06.256Z,10.40
2019-02-17T12:33:18.409Z,9.77
2019-02-17T12:36:14.300Z,10.70
2019-02-17T12:39:17.027Z,11.17
2019-02-17T12:42:20.465Z,10.10
2019-02-17T12:45:23.254Z,9.70
2019-02-17T12:48:26.245Z,9.40
2019-02-17T12:51:29.254Z,9.53
2019-02-17T12:54:32.187Z,9.17
2019-02-17T12:57:34.836Z,7.90
2019-02-17T13:00:40.372Z,8.17
2019-02-17T13:03:44.592Z,8.00
2019-02-17T13:06:47.516Z,8.70
2019-02-17T13:09:50.276Z,8.17
2019-02-17T13:12:53.241Z,8.10
2019-02-17T13:15:56.240Z,7.70
2019-02-17T13:18:59.310Z,8.20
2019-02-17T13:22:02.236Z,10.03
2019-02-17T13:25:08.874Z,8.10
2019-02-17T13:28:11.693Z,9.30
2019-02-17T13:31:14.488Z,8.30
2019-02-17T13:34:17.357Z,8.50
2019-02-17T13:37:20.995Z,9.20
2019-02-17T13:40:23.841Z,9.53
2019-02-17T13:43:26.831Z,9.63
2019-02-17T13:46:29.756Z,9.17
2019-02-17T13:49:32.573Z,9.67
2019-02-17T13:52:35.331Z,10.20
2019-02-17T13:55:38.113Z,10.30
2019-02-17T13:58:40.872Z,9.97
2019-02-17T14:01:43.694Z,11.07
2019-02-17T14:04:46.588Z,10.30
2019-02-17T14:07:49.450Z,11.93
2019-02-17T14:10:52.423Z,12.57
2019-02-17T14:13:55.551Z,12.93
2019-02-17T14:16:58.750Z,13.40
2019-02-17T14:20:01.663Z,13.97
2019-02-17T14:23:04.991Z,13.97
2019-02-17T14:26:07.890Z,14.40
2019-02-17T14:29:10.602Z,15.77
2019-02-17T14:32:16.481Z,17.67
2019-02-17T14:35:19.356Z,17.67
2019-02-17T14:38:22.811Z,18.30
2019-02-17T14:41:25.590Z,18.97
2019-02-17T14:44:28.636Z,19.63
2019-02-17T14:47:31.916Z,19.83
2019-02-17T14:50:34.746Z,21.63
2019-02-17T14:53:37.958Z,22.13
2019-02-17T14:56:40.881Z,22.97
2019-02-17T14:59:43.869Z,24.33
2019-02-17T15:02:46.603Z,24.97
2019-02-17T15:05:49.934Z,23.67
2019-02-17T15:08:53.141Z,25.30
2019-02-17T15:11:55.918Z,25.43
2019-02-17T15:14:58.707Z,26.67
2019-02-17T15:18:01.493Z,25.80
2019-02-17T15:21:04.364Z,25.00
2019-02-17T15:24:08.040Z,27.80
2019-02-17T15:27:10.964Z,26.50
2019-02-17T15:30:13.960Z,24.77
2019-02-17T15:33:16.793Z,26.43
2019-02-17T15:36:19.733Z,27.53
2019-02-17T15:39:22.578Z,27.63
2019-02-17T15:42:25.515Z,27.67
2019-02-17T15:45:28.369Z,28.60
2019-02-17T15:48:31.107Z,30.13
2019-02-17T15:51:34.650Z,30.07
2019-02-17T15:54:37.414Z,31.20
2019-02-17T15:57:40.292Z,27.83
2019-02-17T16:00:43.062Z,30.63
2019-02-17T16:03:45.977Z,28.67
2019-02-17T16:06:49.153Z,30.73
2019-02-17T16:09:51.868Z,32.30
2019-02-17T16:12:54.600Z,32.63
2019-02-17T16:15:57.370Z,31.77
2019-02-17T16:19:00.065Z,32.07
2019-02-17T16:22:02.900Z,34.87
2019-02-17T16:25:05.725Z,34.40
2019-02-17T16:28:08.454Z,33.53
2019-02-17T16:31:11.200Z,34.03
2019-02-17T16:34:16.439Z,31.27
2019-02-17T16:37:19.214Z,32.50
2019-02-17T16:40:22.310Z,32.43
2019-02-17T16:43:25.179Z,32.80
2019-02-17T16:46:28.070Z,35.13
2019-02-17T16:49:30.864Z,35.40
2019-02-17T16:52:34.635Z,35.80
2019-02-17T16:55:37.700Z,36.80
2019-02-17T16:58:40.665Z,37.77
2019-02-17T17:01:43.435Z,36.73
2019-02-17T17:04:48.897Z,38.97
2019-02-17T17:07:50.883Z,35.43
2019-02-17T17:10:54.827Z,36.73
2019-02-17T17:13:57.606Z,33.80
2019-02-17T17:17:00.467Z,32.87
2019-02-17T17:20:03.562Z,35.00
2019-02-17T17:23:06.363Z,35.10
2019-02-17T17:26:09.214Z,33.57
2019-02-17T17:29:12.202Z,32.10
2019-02-17T17:32:17.744Z,31.07
2019-02-17T17:35:21.532Z,31.03
2019-02-17T17:38:24.452Z,31.30
2019-02-17T17:41:27.283Z,32.13
2019-02-17T17:44:30.013Z,29.77
2019-02-17T17:47:32.865Z,32.70
2019-02-17T17:50:35.608Z,30.23
2019-02-17T17:53:38.438Z,32.23
2019-02-17T17:56:41.255Z,30.93
2019-02-17T17:59:44.184Z,30.93
2019-02-17T18:02:47.059Z,30.17
2019-02-17T18:05:50.045Z,31.83
2019-02-17T18:08:52.884Z,32.17
2019-02-17T18:11:55.735Z,30.17
2019-02-17T18:14:58.486Z,34.53
2019-02-17T18:18:01.348Z,35.43
2019-02-17T18:21:04.253Z,32.60
2019-02-17T18:24:07.058Z,33.27
2019-02-17T18:27:09.877Z,34.30
2019-02-17T18:30:13.656Z,35.73
2019-02-17T18:33:16.594Z,34.47
2019-02-17T18:36:19.556Z,36.00
2019-02-17T18:39:22.336Z,38.20
2019-02-17T18:42:25.216Z,36.60
2019-02-17T18:45:27.880Z,38.10
2019-02-17T18:48:30.831Z,36.13
2019-02-17T18:51:33.525Z,38.93
2019-02-17T18:54:38.324Z,40.70
2019-02-17T18:57:49.443Z,40.43
2019-02-17T19:00:45.798Z,34.17
2019-02-17T19:03:48.697Z,40.93
2019-02-17T19:06:51.618Z,34.60
2019-02-17T19:09:55.027Z,41.40
2019-02-17T19:12:58.069Z,36.23
2019-02-17T19:16:00.868Z,38.37
2019-02-17T19:19:03.831Z,35.07
2019-02-17T19:22:06.692Z,37.90
2019-02-17T19:25:09.734Z,34.43
2019-02-17T19:28:12.532Z,33.03
2019-02-17T19:31:15.367Z,35.97
2019-02-17T19:34:18.329Z,34.53
2019-02-17T19:37:21.033Z,33.10
2019-02-17T19:40:23.962Z,36.33
2019-02-17T19:43:26.865Z,39.27
2019-02-17T19:46:29.757Z,35.63
2019-02-17T19:49:33.710Z,40.27
2019-02-17T19:52:36.935Z,38.37
2019-02-17T19:55:39.665Z,37.13
2019-02-17T19:58:42.536Z,34.97
2019-02-17T20:01:45.236Z,37.57
2019-02-17T20:05:07.573Z,35.87
2019-02-17T20:08:10.223Z,40.17
2019-02-17T20:11:14.009Z,36.77
2019-02-17T20:14:17.294Z,37.57
2019-02-17T20:17:21.167Z,38.97
2019-02-17T20:20:23.916Z,36.80
2019-02-17T20:23:27.967Z,38.23
2019-02-17T20:26:30.714Z,35.23
2019-02-17T20:29:33.665Z,38.17
2019-02-17T20:32:36.387Z,32.10
2019-02-17T20:35:39.179Z,32.93
2019-02-17T20:38:42.051Z,33.87
2019-02-17T20:41:44.929Z,33.83
2019-02-17T20:44:48.012Z,31.87
2019-02-17T20:47:51.188Z,30.50
2019-02-17T20:50:53.983Z,29.97
2019-02-17T20:53:57.399Z,28.83
2019-02-17T20:57:03.234Z,30.93
2019-02-17T21:00:06.395Z,29.53
2019-02-17T21:03:09.399Z,30.20
2019-02-17T21:06:13.102Z,33.33
2019-02-17T21:09:15.980Z,31.37
2019-02-17T21:12:18.848Z,35.07
2019-02-17T21:15:21.585Z,33.30
2019-02-17T21:18:24.539Z,36.33
2019-02-17T21:21:27.432Z,35.37
2019-02-17T21:24:30.225Z,33.97
2019-02-17T21:27:33.232Z,40.83
2019-02-17T21:30:38.869Z,44.43
2019-02-17T21:33:41.935Z,46.93
2019-02-17T21:36:45.551Z,45.27
2019-02-17T21:39:48.601Z,48.00
2019-02-17T21:42:51.494Z,45.80
2019-02-17T21:45:54.400Z,48.70
2019-02-17T21:48:57.273Z,48.00
2019-02-17T21:51:59.948Z,48.17
2019-02-17T21:55:02.886Z,45.73
2019-02-17T21:58:06.091Z,44.93
2019-02-17T22:01:09.034Z,44.83
2019-02-17T22:04:11.948Z,44.27
2019-02-17T22:07:15.031Z,45.83
2019-02-17T22:10:17.808Z,47.00
2019-02-17T22:13:20.713Z,49.10
2019-02-17T22:16:23.511Z,49.17
2019-02-17T22:19:26.385Z,54.03
2019-02-17T22:22:29.181Z,56.40
2019-02-17T22:25:34.947Z,55.87
2019-02-17T22:28:38.089Z,56.27
2019-02-17T22:31:40.817Z,58.20
2019-02-17T22:34:43.704Z,55.47
2019-02-17T22:37:46.429Z,57.10
2019-02-17T22:40:49.183Z,52.70
2019-02-17T22:43:51.962Z,51.87
2019-02-17T22:46:54.749Z,50.57
2019-02-17T22:49:57.498Z,49.77
2019-02-17T22:53:00.304Z,48.93
2019-02-17T22:56:04.062Z,44.23
2019-02-17T22:59:06.779Z,42.97
2019-02-17T23:02:11.810Z,41.57
2019-02-17T23:05:14.091Z,36.70
2019-02-17T23:08:16.927Z,36.63
2019-02-17T23:11:19.640Z,35.37
2019-02-17T23:14:22.245Z,36.00
2019-02-17T23:17:24.855Z,33.50
2019-02-17T23:20:27.725Z,32.33
2019-02-17T23:23:30.401Z,32.97
2019-02-17T23:26:33.097Z,30.73
2019-02-17T23:29:35.861Z,27.70
2019-02-17T23:32:38.506Z,28.07
2019-02-17T23:35:41.206Z,26.60
2019-02-17T23:38:43.774Z,25.77
2019-02-17T23:41:46.614Z,24.73
2019-02-17T23:44:49.252Z,25.37
2019-02-17T23:47:51.975Z,26.80
2019-02-17T23:50:54.650Z,26.03
2019-02-17T23:53:57.337Z,28.73
2019-02-17T23:57:00.046Z,27.97
